Time;durP1;ratioP1;P1;durP2;ratioP2;P2;SDS_P1;SDS_P2;PMS_P1;PMS_P2;Temp;Humidity;BMP_temperature;BMP_pressure;BME280_temperature;BME280_humidity;BME280_pressure;Samples;Min_cycle;Max_cycle;Signal;HPM_P1;HPM_P2
2022/06/11 00:00:15;;;;;;;10.32;6.40;;;14.00;99.90;;;;;;5173724;28;20218;-75
2022/06/11 00:02:47;;;;;;;;;;;13.90;99.90;;;;;;5175020;28;20057;-75
2022/06/11 00:05:21;;;;;;;13.32;6.82;;;13.80;99.90;;;;;;5170907;28;19932;-75
2022/06/11 00:07:54;;;;;;;7.57;6.18;;;13.80;99.90;;;;;;5149990;28;20057;-76
2022/06/11 00:10:27;;;;;;;8.65;6.32;;;13.80;99.90;;;;;;5172260;28;20050;-75
2022/06/11 00:13:00;;;;;;;12.80;5.55;;;13.80;99.90;;;;;;5174115;28;20049;-76
2022/06/11 00:15:33;;;;;;;13.13;6.22;;;13.70;99.90;;;;;;5171940;28;20060;-75
2022/06/11 00:18:06;;;;;;;9.88;6.13;;;13.70;99.90;;;;;;5155577;28;20042;-75
2022/06/11 00:20:38;;;;;;;10.30;6.20;;;13.60;99.90;;;;;;5155153;28;20687;-78
2022/06/11 00:23:12;;;;;;;13.07;6.68;;;13.60;99.90;;;;;;5171053;28;20493;-76
2022/06/11 00:25:44;;;;;;;12.20;6.45;;;13.50;99.90;;;;;;5154271;28;20131;-76
2022/06/11 00:28:17;;;;;;;11.70;6.40;;;13.40;99.90;;;;;;5173750;28;20054;-75
2022/06/11 00:30:49;;;;;;;10.52;6.13;;;13.50;99.90;;;;;;5173048;28;20049;-78
2022/06/11 00:33:22;;;;;;;10.93;6.38;;;13.50;99.90;;;;;;5172542;28;20398;-76
2022/06/11 00:35:54;;;;;;;8.30;6.50;;;13.50;99.90;;;;;;5170787;28;20045;-75
2022/06/11 00:38:26;;;;;;;9.93;6.63;;;13.40;99.90;;;;;;5172839;28;20053;-76
2022/06/11 00:40:59;;;;;;;16.88;6.53;;;13.40;99.90;;;;;;5174855;28;20057;-76
2022/06/11 00:43:32;;;;;;;10.30;7.38;;;13.50;99.90;;;;;;5155259;28;20418;-77
2022/06/11 00:46:29;;;;;;;10.18;6.40;;;13.40;99.90;;;;;;5172617;28;20045;-76
2022/06/11 00:49:04;;;;;;;9.98;6.50;;;13.30;99.90;;;;;;5155652;28;20077;-76
2022/06/11 00:51:37;;;;;;;10.23;6.95;;;13.20;99.90;;;;;;5152821;28;20049;-75
2022/06/11 00:54:15;;;;;;;9.55;6.80;;;13.20;99.90;;;;;;5172842;28;20057;-76
2022/06/11 00:56:54;;;;;;;9.18;6.93;;;13.20;99.90;;;;;;5172177;28;20068;-76
2022/06/11 00:59:36;;;;;;;13.30;7.10;;;13.20;99.90;;;;;;5169975;28;20076;-75
2022/06/11 01:02:08;;;;;;;14.73;6.45;;;13.30;99.90;;;;;;5171323;28;20050;-79
2022/06/11 01:04:47;;;;;;;11.45;6.57;;;13.30;99.90;;;;;;5176713;28;20385;-75
2022/06/11 01:07:41;;;;;;;10.82;6.57;;;13.30;99.90;;;;;;5176649;28;20046;-76
2022/06/11 01:11:05;;;;;;;11.02;7.57;;;13.10;99.90;;;;;;5179682;28;20577;-75
2022/06/11 01:13:51;;;;;;;10.18;6.20;;;12.90;99.90;;;;;;5123124;28;20053;-76
2022/06/11 01:16:27;;;;;;;8.63;6.50;;;12.90;99.90;;;;;;5175438;28;20054;-77
2022/06/11 01:19:33;;;;;;;8.35;6.05;;;13.00;99.90;;;;;;5174877;28;20048;-77
2022/06/11 01:22:27;;;;;;;10.85;6.63;;;13.00;99.90;;;;;;5175897;28;20080;-76
2022/06/11 01:25:19;;;;;;;;;;;13.00;99.90;;;;;;5175255;28;20049;-76
2022/06/11 01:28:02;;;;;;;9.73;6.57;;;12.80;99.90;;;;;;5177516;28;19926;-76
2022/06/11 01:30:45;;;;;;;8.25;5.78;;;12.80;99.90;;;;;;5176899;28;20049;-77
2022/06/11 01:33:59;;;;;;;12.65;6.47;;;12.80;99.90;;;;;;5177084;28;20360;-77
2022/06/11 01:36:36;;;;;;;8.50;5.30;;;12.70;99.90;;;;;;5138190;28;20046;-75
2022/06/11 01:39:16;;;;;;;11.77;6.20;;;12.60;99.90;;;;;;5181148;28;20319;-77
2022/06/11 01:42:11;;;;;;;12.10;6.15;;;12.70;99.90;;;;;;5158801;28;20042;-76
2022/06/11 01:44:45;;;;;;;13.82;6.43;;;12.70;99.90;;;;;;5172981;28;20330;-75
2022/06/11 01:47:18;;;;;;;12.25;7.10;;;12.80;99.90;;;;;;5174270;28;20056;-75
2022/06/11 01:49:50;;;;;;;7.35;5.60;;;12.70;99.90;;;;;;5174421;28;20163;-76
2022/06/11 01:52:34;;;;;;;11.52;6.43;;;12.60;99.90;;;;;;5174744;28;20501;-76
2022/06/11 01:55:17;;;;;;;7.72;6.35;;;12.70;99.90;;;;;;5173345;28;20049;-75
2022/06/11 01:58:22;;;;;;;13.13;6.38;;;12.80;99.90;;;;;;5174153;28;20054;-73
2022/06/11 02:01:07;;;;;;;9.02;6.50;;;12.70;99.90;;;;;;5171746;28;20046;-75
2022/06/11 02:04:00;;;;;;;7.18;5.95;;;12.70;99.90;;;;;;5175261;28;20565;-75
2022/06/11 02:06:49;;;;;;;8.57;5.93;;;12.70;99.90;;;;;;5176028;28;20049;-76
2022/06/11 02:09:34;;;;;;;10.98;5.55;;;12.60;99.90;;;;;;5174532;28;20050;-77
2022/06/11 02:12:25;;;;;;;11.25;6.28;;;12.60;99.90;;;;;;5174636;28;20416;-74
2022/06/11 02:15:09;;;;;;;13.02;6.25;;;12.60;99.90;;;;;;5171125;28;20435;-75
2022/06/11 02:17:45;;;;;;;12.55;7.00;;;12.50;99.90;;;;;;5174203;28;20054;-76
2022/06/11 02:20:23;;;;;;;9.63;6.32;;;12.50;99.90;;;;;;5172472;28;20056;-78
2022/06/11 02:23:07;;;;;;;9.80;6.00;;;12.50;99.90;;;;;;5170837;28;20059;-76
2022/06/11 02:25:49;;;;;;;8.75;6.43;;;12.40;99.90;;;;;;5171243;28;20053;-76
2022/06/11 02:28:26;;;;;;;6.88;5.68;;;12.40;99.90;;;;;;5173213;28;20054;-75
2022/06/11 02:31:04;;;;;;;8.93;5.82;;;12.40;99.90;;;;;;5172420;28;20046;-77
2022/06/11 02:33:37;;;;;;;8.77;6.10;;;12.40;99.90;;;;;;5170942;28;20049;-76
2022/06/11 02:36:17;;;;;;;10.63;6.30;;;12.30;99.90;;;;;;5172469;28;20466;-76
2022/06/11 02:38:50;;;;;;;9.05;5.97;;;12.20;99.90;;;;;;5172846;28;20046;-77
2022/06/11 02:41:27;;;;;;;7.32;5.38;;;12.30;99.90;;;;;;5172364;28;20100;-77
2022/06/11 02:43:59;;;;;;;8.13;6.00;;;12.30;99.90;;;;;;5175476;28;20042;-75
2022/06/11 02:46:41;;;;;;;10.30;5.27;;;12.20;99.90;;;;;;5174210;28;20046;-74
2022/06/11 02:49:24;;;;;;;11.40;5.95;;;12.20;99.90;;;;;;5172198;28;20054;-74
2022/06/11 02:52:01;;;;;;;5.60;5.03;;;12.20;99.90;;;;;;5154829;28;20061;-75
2022/06/11 02:54:34;;;;;;;7.82;5.28;;;12.20;99.90;;;;;;5176331;28;20579;-74
2022/06/11 02:57:08;;;;;;;8.65;5.53;;;12.20;99.90;;;;;;5178730;28;20053;-76
2022/06/11 02:59:42;;;;;;;8.00;5.93;;;12.10;99.90;;;;;;5173817;28;20042;-75
2022/06/11 03:02:15;;;;;;;8.20;5.57;;;12.20;99.90;;;;;;5172168;28;20557;-75
2022/06/11 03:04:48;;;;;;;6.60;5.70;;;12.10;99.90;;;;;;5171138;28;20054;-76
2022/06/11 03:07:22;;;;;;;10.98;5.68;;;12.10;99.90;;;;;;5155315;28;20038;-74
2022/06/11 03:09:54;;;;;;;10.75;5.70;;;12.10;99.90;;;;;;5172295;28;20504;-73
2022/06/11 03:12:26;;;;;;;7.70;5.57;;;12.10;99.90;;;;;;5171172;28;20069;-76
2022/06/11 03:14:59;;;;;;;7.65;5.32;;;12.00;99.90;;;;;;5171801;28;20062;-76
2022/06/11 03:17:31;;;;;;;10.93;5.35;;;12.00;99.90;;;;;;5155740;28;20064;-78
2022/06/11 03:20:06;;;;;;;12.38;5.80;;;11.90;99.90;;;;;;5176102;28;20038;-76
2022/06/11 03:22:39;;;;;;;8.63;5.63;;;11.90;99.90;;;;;;5172920;28;20053;-78
2022/06/11 03:25:12;;;;;;;10.27;5.90;;;12.00;99.90;;;;;;5175384;28;20108;-75
2022/06/11 03:27:47;;;;;;;10.77;6.03;;;12.10;99.90;;;;;;5173471;28;20298;-75
2022/06/11 03:30:20;;;;;;;9.45;5.40;;;12.20;99.90;;;;;;5171443;28;20527;-76
2022/06/11 03:32:52;;;;;;;11.93;6.03;;;12.10;99.90;;;;;;5172886;28;20054;-75
2022/06/11 03:35:25;;;;;;;10.65;5.50;;;12.10;99.90;;;;;;5155698;28;20082;-75
2022/06/11 03:37:57;;;;;;;6.97;5.30;;;12.10;99.90;;;;;;5154950;28;20058;-74
2022/06/11 03:40:29;;;;;;;13.23;6.57;;;12.10;99.90;;;;;;5171987;28;20134;-74
2022/06/11 03:43:02;;;;;;;8.80;5.65;;;12.10;99.90;;;;;;5173177;28;20061;-75
2022/06/11 03:45:36;;;;;;;12.00;7.28;;;12.10;99.90;;;;;;5172964;28;20052;-75
2022/06/11 03:48:09;;;;;;;9.85;5.93;;;12.10;99.90;;;;;;5168519;28;20691;-75
2022/06/11 03:50:41;;;;;;;8.93;5.50;;;12.10;99.90;;;;;;5172284;28;20065;-75
2022/06/11 03:53:14;;;;;;;11.68;6.10;;;12.10;99.90;;;;;;5172700;28;20403;-76
2022/06/11 03:55:47;;;;;;;7.37;5.13;;;12.00;99.90;;;;;;5171053;28;20072;-75
2022/06/11 03:58:20;;;;;;;6.43;5.25;;;12.00;99.90;;;;;;5172895;28;20054;-76
2022/06/11 04:03:56;;;;;;;7.47;5.22;;;12.00;99.90;;;;;;5151836;28;20045;-75
2022/06/11 04:06:39;;;;;;;8.18;5.10;;;12.10;99.90;;;;;;5173822;28;20052;-74
2022/06/11 04:09:40;;;;;;;6.07;4.32;;;12.20;99.90;;;;;;5172792;28;20049;-75
2022/06/11 04:12:15;;;;;;;8.00;5.53;;;12.20;99.90;;;;;;5170595;28;20057;-76
2022/06/11 04:14:49;;;;;;;7.90;5.53;;;12.30;99.90;;;;;;5170558;28;20053;-75
2022/06/11 04:17:28;;;;;;;6.80;5.18;;;12.30;99.90;;;;;;5169469;28;20057;-76
2022/06/11 04:20:01;;;;;;;6.85;5.15;;;12.40;99.90;;;;;;5169212;28;20050;-74
2022/06/11 04:22:33;;;;;;;8.82;5.78;;;12.30;99.90;;;;;;5167621;28;20440;-75
2022/06/11 04:25:07;;;;;;;8.43;6.30;;;12.40;99.90;;;;;;5153205;28;20979;-75
2022/06/11 04:27:39;;;;;;;10.30;5.32;;;12.40;99.90;;;;;;5169062;28;20042;-75
2022/06/11 04:30:14;;;;;;;6.65;5.47;;;12.40;99.90;;;;;;5156525;28;20580;-77
2022/06/11 04:32:47;;;;;;;8.68;6.05;;;12.50;99.90;;;;;;5155716;28;20050;-74
2022/06/11 04:35:19;;;;;;;9.00;5.50;;;12.50;99.90;;;;;;5173023;28;20046;-78
2022/06/11 04:37:52;;;;;;;8.02;5.10;;;12.60;99.90;;;;;;5173713;28;20053;-74
2022/06/11 04:40:25;;;;;;;9.65;5.07;;;12.80;99.90;;;;;;5172213;28;20049;-76
2022/06/11 04:42:57;;;;;;;6.70;4.82;;;12.80;99.90;;;;;;5170480;28;20089;-73
2022/06/11 04:45:30;;;;;;;6.97;5.00;;;12.80;99.90;;;;;;5170149;28;20054;-76
2022/06/11 04:48:03;;;;;;;9.20;5.18;;;12.90;99.90;;;;;;5137317;28;20058;-77
2022/06/11 04:50:36;;;;;;;8.20;5.88;;;13.00;99.90;;;;;;5175577;28;20079;-76
2022/06/11 04:53:08;;;;;;;7.47;4.50;;;13.10;99.90;;;;;;5170369;28;20061;-74
2022/06/11 04:55:41;;;;;;;6.82;4.95;;;13.20;99.90;;;;;;5171917;28;20054;-76
2022/06/11 04:58:14;;;;;;;6.07;4.95;;;13.30;99.90;;;;;;5172615;28;20057;-78
2022/06/11 05:00:46;;;;;;;9.63;5.22;;;13.40;99.90;;;;;;5173452;28;20057;-77
2022/06/11 05:03:19;;;;;;;6.40;4.85;;;13.40;99.90;;;;;;5171736;28;20061;-76
2022/06/11 05:05:52;;;;;;;6.78;5.07;;;13.50;99.90;;;;;;5154260;28;20421;-75
2022/06/11 05:08:24;;;;;;;8.25;4.82;;;13.60;99.90;;;;;;5171729;28;20038;-75
2022/06/11 05:10:57;;;;;;;7.78;4.93;;;13.70;99.90;;;;;;5152606;28;20801;-76
2022/06/11 05:13:30;;;;;;;6.22;5.00;;;13.80;99.90;;;;;;5162290;28;20065;-76
2022/06/11 05:16:02;;;;;;;5.85;4.22;;;13.90;99.90;;;;;;5172246;28;20397;-77
2022/06/11 05:18:35;;;;;;;8.70;4.15;;;14.10;99.90;;;;;;5172377;28;20053;-76
2022/06/11 05:21:07;;;;;;;7.30;4.13;;;14.10;99.90;;;;;;5173799;28;20042;-76
2022/06/11 05:23:40;;;;;;;6.03;4.35;;;14.20;99.90;;;;;;5175062;28;20054;-77
2022/06/11 05:26:32;;;;;;;6.40;4.47;;;14.40;99.90;;;;;;5174055;28;20049;-77
2022/06/11 05:29:06;;;;;;;9.15;4.57;;;14.50;99.90;;;;;;5178491;28;20068;-76
2022/06/11 05:31:38;;;;;;;5.30;4.50;;;14.60;99.90;;;;;;5185958;28;20565;-75
2022/06/11 05:34:11;;;;;;;5.57;3.90;;;14.80;99.90;;;;;;5182968;28;20060;-76
2022/06/11 05:36:43;;;;;;;4.47;3.85;;;14.90;99.90;;;;;;5181480;28;20045;-76
2022/06/11 05:39:16;;;;;;;6.65;4.35;;;15.00;99.90;;;;;;5177526;28;20556;-76
2022/06/11 05:41:49;;;;;;;5.15;3.70;;;15.10;99.90;;;;;;5162320;28;20078;-73
2022/06/11 05:44:22;;;;;;;5.30;4.13;;;15.30;99.90;;;;;;5180463;28;20111;-76
2022/06/11 05:46:54;;;;;;;5.37;3.93;;;15.40;99.90;;;;;;5179749;28;20046;-76
2022/06/11 05:49:34;;;;;;;7.22;4.25;;;15.50;99.90;;;;;;5160684;28;20452;-77
2022/06/11 05:52:14;;;;;;;5.38;3.92;;;15.60;99.90;;;;;;5187577;28;20052;-76
2022/06/11 05:54:47;;;;;;;4.60;3.60;;;15.70;99.90;;;;;;5164952;28;20053;-77
2022/06/11 05:57:23;;;;;;;6.72;4.05;;;15.80;99.90;;;;;;5185259;28;20045;-76
2022/06/11 06:00:05;;;;;;;6.00;3.90;;;15.90;99.90;;;;;;5163620;28;20049;-75
2022/06/11 06:02:45;;;;;;;5.72;3.35;;;16.00;99.90;;;;;;5170114;28;20421;-77
2022/06/11 06:05:22;;;;;;;4.17;3.47;;;16.10;99.90;;;;;;5175148;28;20496;-76
2022/06/11 06:07:57;;;;;;;9.02;3.78;;;16.20;99.90;;;;;;5175416;28;20289;-77
2022/06/11 06:10:29;;;;;;;6.23;3.77;;;16.20;99.90;;;;;;5176950;28;20045;-77
2022/06/11 06:13:45;;;;;;;5.65;3.90;;;16.30;99.90;;;;;;5155412;28;20413;-76
2022/06/11 06:15:54;;;;;;;7.93;4.47;;;16.40;99.90;;;;;;5175497;28;20064;-76
2022/06/11 06:18:27;;;;;;;5.75;4.07;;;16.50;99.90;;;;;;5176795;28;20045;-75
2022/06/11 06:20:59;;;;;;;6.88;4.28;;;16.60;99.90;;;;;;5176300;28;20065;-76
2022/06/11 06:23:33;;;;;;;5.38;3.60;;;16.70;99.90;;;;;;5177302;28;20057;-76
2022/06/11 06:26:06;;;;;;;7.15;3.42;;;16.80;99.90;;;;;;5174568;28;20037;-76
2022/06/11 06:28:38;;;;;;;7.38;3.90;;;16.90;99.90;;;;;;5177296;28;20521;-76
2022/06/11 06:31:16;;;;;;;9.30;4.03;;;17.10;99.90;;;;;;5178331;28;20645;-76
2022/06/11 06:33:51;;;;;;;8.63;3.90;;;17.20;99.90;;;;;;5177800;28;20056;-79
2022/06/11 06:36:23;;;;;;;5.70;4.00;;;17.30;99.90;;;;;;5156481;28;20069;-78
2022/06/11 06:38:56;;;;;;;9.10;4.15;;;17.40;99.90;;;;;;5174347;28;20049;-79
2022/06/11 06:41:28;;;;;;;6.05;3.60;;;17.50;99.90;;;;;;5173309;28;20046;-76
2022/06/11 06:44:01;;;;;;;4.63;3.65;;;17.60;99.90;;;;;;5174960;28;20046;-83
2022/06/11 06:46:34;;;;;;;4.93;3.95;;;17.70;99.90;;;;;;5158076;28;20509;-76
2022/06/11 06:49:06;;;;;;;3.92;3.63;;;17.80;99.90;;;;;;5173150;28;20045;-77
2022/06/11 06:51:39;;;;;;;6.20;3.63;;;17.90;99.90;;;;;;5165260;28;20053;-77
2022/06/11 06:54:12;;;;;;;5.47;3.50;;;18.10;99.60;;;;;;5172387;28;20050;-78
2022/06/11 06:56:44;;;;;;;4.97;3.38;;;18.20;99.50;;;;;;5155554;28;20054;-79
2022/06/11 06:59:16;;;;;;;4.70;3.70;;;18.20;97.60;;;;;;5170694;28;20058;-80
2022/06/11 07:01:49;;;;;;;5.25;3.50;;;18.40;96.90;;;;;;5159682;28;20380;-77
2022/06/11 07:04:21;;;;;;;4.53;3.80;;;18.40;96.70;;;;;;5154994;28;20565;-77
2022/06/11 07:06:56;;;;;;;6.60;3.30;;;18.60;97.40;;;;;;5171732;28;20048;-78
2022/06/11 07:09:30;;;;;;;4.30;3.10;;;18.70;96.10;;;;;;5165482;28;20041;-79
2022/06/11 07:12:03;;;;;;;;;;;18.90;96.80;;;;;;5173479;28;20065;-78
2022/06/11 07:14:35;;;;;;;4.03;3.13;;;18.90;92.10;;;;;;5170430;28;19925;-78
2022/06/11 07:17:10;;;;;;;5.65;3.38;;;19.10;93.60;;;;;;5151802;28;20053;-77
2022/06/11 07:19:49;;;;;;;7.15;3.03;;;19.10;92.00;;;;;;5173678;28;20064;-78
2022/06/11 07:22:26;;;;;;;5.22;3.28;;;19.20;90.70;;;;;;5173262;28;20056;-78
2022/06/11 07:25:01;;;;;;;5.60;3.25;;;19.30;87.80;;;;;;5171733;28;20108;-79
2022/06/11 07:27:38;;;;;;;5.65;3.38;;;19.30;86.90;;;;;;5171930;28;20436;-77
2022/06/11 07:30:14;;;;;;;4.75;3.08;;;19.50;86.30;;;;;;5172205;28;20045;-77
2022/06/11 07:32:53;;;;;;;5.70;3.47;;;19.50;86.40;;;;;;5173341;28;20057;-78
2022/06/11 07:35:25;;;;;;;6.50;4.00;;;19.60;85.90;;;;;;5173840;28;20065;-78
2022/06/11 07:37:58;;;;;;;3.60;3.20;;;19.90;85.50;;;;;;5155919;28;20061;-77
2022/06/11 07:40:31;;;;;;;5.03;3.40;;;20.00;85.20;;;;;;5174029;28;20049;-78
2022/06/11 07:43:06;;;;;;;4.10;3.00;;;19.90;84.20;;;;;;5156588;28;20053;-79
2022/06/11 07:45:42;;;;;;;6.10;3.25;;;20.00;82.80;;;;;;5174823;28;20052;-77
2022/06/11 07:48:15;;;;;;;5.10;3.45;;;20.20;83.40;;;;;;5173524;28;20053;-76
2022/06/11 07:50:50;;;;;;;3.53;2.75;;;20.50;83.30;;;;;;5153695;28;20572;-76
2022/06/11 07:53:23;;;;;;;4.25;3.22;;;20.70;81.10;;;;;;5171988;28;20046;-77
2022/06/11 07:55:55;;;;;;;7.47;3.37;;;20.70;80.00;;;;;;5172831;28;20053;-76
2022/06/11 07:58:31;;;;;;;4.97;3.30;;;20.70;77.20;;;;;;5170809;28;20084;-77
2022/06/11 08:01:05;;;;;;;4.32;2.95;;;20.70;77.70;;;;;;5173073;28;20050;-77
2022/06/11 08:03:38;;;;;;;5.95;3.25;;;20.60;77.30;;;;;;5172676;28;20497;-77
2022/06/11 08:06:12;;;;;;;7.80;3.15;;;20.80;78.00;;;;;;5170983;28;20045;-76
2022/06/11 08:08:45;;;;;;;3.88;3.00;;;21.00;77.10;;;;;;5172395;28;20054;-76
2022/06/11 08:11:18;;;;;;;;;;;21.20;77.00;;;;;;5170392;28;20060;-77
2022/06/11 08:13:50;;;;;;;6.15;3.03;;;21.20;72.10;;;;;;5171702;28;20182;-76
2022/06/11 08:16:23;;;;;;;4.30;2.97;;;21.40;71.80;;;;;;5170659;28;20461;-78
2022/06/11 08:18:56;;;;;;;5.22;3.00;;;21.50;71.60;;;;;;5171820;28;20141;-76
2022/06/11 08:21:28;;;;;;;5.90;2.95;;;21.40;71.90;;;;;;5169165;28;20050;-81
2022/06/11 08:24:00;;;;;;;3.33;2.80;;;21.60;73.50;;;;;;5170465;28;20056;-77
2022/06/11 08:26:34;;;;;;;5.15;3.83;;;21.70;74.20;;;;;;5170112;28;20497;-79
2022/06/11 08:29:06;;;;;;;4.70;2.78;;;21.80;72.50;;;;;;5154123;28;20588;-76
2022/06/11 08:31:38;;;;;;;9.00;3.13;;;21.80;71.50;;;;;;5155284;28;20616;-77
2022/06/11 08:34:11;;;;;;;6.45;3.38;;;21.80;70.40;;;;;;5172112;28;20056;-79
2022/06/11 08:36:43;;;;;;;5.60;3.20;;;21.80;70.90;;;;;;5172660;28;20050;-79
2022/06/11 08:39:16;;;;;;;2.90;2.65;;;21.80;69.40;;;;;;5171098;28;20435;-78
2022/06/11 08:41:48;;;;;;;4.63;3.20;;;22.00;70.80;;;;;;5171176;28;20068;-78
2022/06/11 08:44:21;;;;;;;5.53;2.80;;;22.00;69.00;;;;;;5170822;28;20535;-75
2022/06/11 08:46:59;;;;;;;5.13;2.92;;;22.00;68.60;;;;;;5170743;28;20045;-79
2022/06/11 08:49:43;;;;;;;3.92;2.83;;;22.10;69.10;;;;;;5169935;28;20057;-78
2022/06/11 08:52:22;;;;;;;;;;;22.10;67.50;;;;;;5169719;28;20061;-77
2022/06/11 08:54:55;;;;;;;4.20;3.00;;;22.10;70.40;;;;;;5172260;28;19940;-76
2022/06/11 08:57:27;;;;;;;;;;;22.20;69.20;;;;;;5151897;28;20050;-76
2022/06/11 09:00:17;;;;;;;5.97;2.95;;;22.20;67.90;;;;;;5159757;28;19925;-76
2022/06/11 09:02:56;;;;;;;5.85;3.50;;;22.20;67.40;;;;;;5154154;28;20046;-77
2022/06/11 09:05:59;;;;;;;4.80;3.17;;;22.10;68.20;;;;;;5155641;28;20172;-77
2022/06/11 09:08:59;;;;;;;4.53;3.00;;;22.00;69.30;;;;;;5171383;28;20046;-77
2022/06/11 09:12:14;;;;;;;7.75;3.22;;;22.20;68.00;;;;;;5171177;28;20570;-77
2022/06/11 09:15:28;;;;;;;4.18;2.95;;;22.20;70.40;;;;;;5118035;28;20051;-78
2022/06/11 09:18:20;;;;;;;5.23;3.10;;;22.30;66.40;;;;;;5152307;28;20054;-77
2022/06/11 09:21:19;;;;;;;6.35;2.58;;;22.40;67.30;;;;;;5167069;28;20509;-74
2022/06/11 09:23:52;;;;;;;2.92;2.72;;;22.30;67.00;;;;;;5168666;28;20052;-75
2022/06/11 09:26:42;;;;;;;6.68;3.50;;;22.40;64.40;;;;;;5176125;28;20050;-75
2022/06/11 09:29:23;;;;;;;3.92;2.60;;;22.50;65.40;;;;;;5173857;28;20052;-77
2022/06/11 09:32:10;;;;;;;3.95;3.15;;;22.60;65.90;;;;;;5159219;28;20532;-76
2022/06/11 09:34:54;;;;;;;3.58;2.42;;;22.70;63.40;;;;;;5175483;28;20042;-77
2022/06/11 09:38:04;;;;;;;3.95;2.75;;;22.70;63.70;;;;;;5175245;28;20057;-77
2022/06/11 09:40:49;;;;;;;5.78;2.90;;;22.60;64.80;;;;;;5177130;28;20048;-76
2022/06/11 09:43:37;;;;;;;5.80;3.05;;;22.20;63.90;;;;;;5177808;28;20057;-77
2022/06/11 09:46:35;;;;;;;2.95;2.53;;;22.10;66.70;;;;;;5159162;28;20045;-77
2022/06/11 09:49:22;;;;;;;5.20;3.08;;;22.10;64.60;;;;;;5173933;28;20038;-76
2022/06/11 09:52:26;;;;;;;3.17;2.58;;;22.20;62.90;;;;;;5174923;28;20054;-76
2022/06/11 09:55:08;;;;;;;3.47;2.97;;;22.10;64.40;;;;;;5161271;28;20052;-76
2022/06/11 09:58:08;;;;;;;2.80;2.55;;;22.00;63.30;;;;;;5178809;28;20433;-76
2022/06/11 10:01:04;;;;;;;4.13;2.78;;;21.90;63.30;;;;;;5178164;28;20050;-77
2022/06/11 10:03:56;;;;;;;6.95;3.17;;;21.80;65.00;;;;;;5175632;28;20049;-74
2022/06/11 10:06:44;;;;;;;6.90;2.80;;;21.90;63.50;;;;;;5152088;28;20042;-76
2022/06/11 10:09:25;;;;;;;4.70;2.55;;;22.10;64.30;;;;;;5158032;28;20516;-76
2022/06/11 10:12:08;;;;;;;2.70;2.38;;;22.20;64.20;;;;;;5175661;28;20045;-75
2022/06/11 10:14:44;;;;;;;2.27;2.07;;;22.50;63.60;;;;;;5178351;28;20041;-77
2022/06/11 10:17:25;;;;;;;3.40;2.47;;;22.70;62.00;;;;;;5176833;28;20565;-78
2022/06/11 10:20:17;;;;;;;4.13;2.72;;;22.60;61.50;;;;;;5177596;28;20057;-77
2022/06/11 10:23:14;;;;;;;2.40;2.20;;;22.70;61.20;;;;;;5159845;28;20042;-76
2022/06/11 10:26:05;;;;;;;2.60;2.40;;;23.20;63.30;;;;;;5179090;28;20045;-76
2022/06/11 10:29:01;;;;;;;6.65;2.25;;;23.00;59.90;;;;;;5165299;28;20046;-77
2022/06/11 10:31:46;;;;;;;2.92;2.15;;;22.90;60.30;;;;;;5164617;28;20049;-74
2022/06/11 10:34:24;;;;;;;4.38;2.42;;;22.60;61.20;;;;;;5177089;28;20046;-76
2022/06/11 10:37:32;;;;;;;2.63;2.20;;;22.80;65.20;;;;;;5175226;28;20054;-78
2022/06/11 10:40:26;;;;;;;3.72;2.50;;;23.60;61.80;;;;;;5157760;28;20037;-79
2022/06/11 10:43:32;;;;;;;4.22;2.35;;;23.70;59.30;;;;;;5177031;28;20064;-76
2022/06/11 10:46:09;;;;;;;2.70;2.20;;;23.70;57.90;;;;;;5158378;28;20588;-78
2022/06/11 10:48:42;;;;;;;3.67;2.10;;;23.60;60.20;;;;;;5175332;28;20034;-76
2022/06/11 10:51:27;;;;;;;2.57;2.30;;;23.90;57.30;;;;;;5176212;28;20045;-76
2022/06/11 10:54:12;;;;;;;2.45;2.25;;;24.10;55.90;;;;;;5175335;28;20429;-76
2022/06/11 10:56:49;;;;;;;5.25;2.33;;;24.50;56.90;;;;;;5177133;28;20679;-76
2022/06/11 10:59:30;;;;;;;7.00;3.08;;;25.00;58.50;;;;;;5176838;28;20057;-77
2022/06/11 11:02:25;;;;;;;2.67;2.40;;;25.30;57.50;;;;;;5176824;28;20503;-78
2022/06/11 11:05:12;;;;;;;5.30;2.63;;;25.20;55.00;;;;;;5177470;28;20130;-75
2022/06/11 11:08:02;;;;;;;4.20;2.60;;;25.10;57.90;;;;;;5179108;28;20042;-79
2022/06/11 11:10:34;;;;;;;4.47;2.83;;;25.70;58.30;;;;;;5166246;28;20061;-77
2022/06/11 11:13:14;;;;;;;5.57;4.75;;;26.00;55.50;;;;;;5176914;28;20058;-77
2022/06/11 11:16:15;;;;;;;8.43;5.38;;;25.80;56.30;;;;;;5178404;28;20064;-76
2022/06/11 11:19:00;;;;;;;9.88;7.45;;;25.60;57.10;;;;;;5154620;28;20050;-76
2022/06/11 11:21:37;;;;;;;53.15;43.72;;;25.10;57.80;;;;;;5175240;28;20046;-77
2022/06/11 11:24:16;;;;;;;5.70;4.93;;;25.10;58.80;;;;;;5175715;28;20041;-77
2022/06/11 11:26:58;;;;;;;5.75;3.30;;;24.90;58.10;;;;;;5179046;28;20048;-76
2022/06/11 11:29:35;;;;;;;5.13;4.15;;;24.60;57.30;;;;;;5177476;28;20053;-76
2022/06/11 11:32:29;;;;;;;3.75;3.00;;;24.90;59.60;;;;;;5177363;28;20045;-76
2022/06/11 11:35:16;;;;;;;4.45;2.78;;;24.90;58.40;;;;;;5177131;28;20731;-77
2022/06/11 11:38:24;;;;;;;2.92;2.60;;;24.70;57.50;;;;;;5176487;28;20088;-78
2022/06/11 11:41:01;;;;;;;3.00;2.78;;;24.40;58.70;;;;;;5113510;28;21029;-76
2022/06/11 11:43:41;;;;;;;5.30;3.10;;;24.20;59.00;;;;;;5159264;28;20034;-74
2022/06/11 11:46:24;;;;;;;3.90;2.63;;;24.60;58.90;;;;;;5178058;28;20045;-76
2022/06/11 11:48:58;;;;;;;3.38;2.53;;;25.30;56.10;;;;;;5179615;28;20139;-75
2022/06/11 11:51:31;;;;;;;4.10;2.45;;;25.70;56.60;;;;;;5175404;28;20049;-76
2022/06/11 11:54:12;;;;;;;4.30;2.70;;;26.20;54.50;;;;;;5177900;28;20054;-78
2022/06/11 11:56:48;;;;;;;3.78;2.50;;;26.70;55.90;;;;;;5178722;28;20046;-76
2022/06/11 11:59:30;;;;;;;5.15;2.20;;;27.40;54.60;;;;;;5175476;28;21002;-77
2022/06/11 12:02:32;;;;;;;4.93;2.30;;;27.70;53.40;;;;;;5165770;28;20049;-76
2022/06/11 12:05:16;;;;;;;2.42;2.22;;;28.20;50.70;;;;;;5158021;28;20049;-76
2022/06/11 12:07:50;;;;;;;3.33;2.47;;;28.00;51.70;;;;;;5170397;28;20046;-77
2022/06/11 12:10:37;;;;;;;3.08;2.60;;;28.10;51.80;;;;;;5174959;28;20053;-76
2022/06/11 12:13:26;;;;;;;3.13;2.25;;;27.70;51.60;;;;;;5174793;28;21685;-76
2022/06/11 12:16:05;;;;;;;5.15;2.20;;;27.30;50.30;;;;;;5171781;28;20046;-77
2022/06/11 12:18:43;;;;;;;5.70;2.20;;;27.20;54.70;;;;;;5165856;28;20042;-76
2022/06/11 12:21:25;;;;;;;2.25;2.05;;;27.20;51.70;;;;;;5174327;28;20057;-77
2022/06/11 12:24:26;;;;;;;3.25;2.60;;;26.90;52.40;;;;;;5156292;28;20066;-75
2022/06/11 12:27:15;;;;;;;3.00;2.30;;;26.60;53.00;;;;;;5164538;28;20046;-76
2022/06/11 12:29:53;;;;;;;4.90;3.13;;;26.90;54.30;;;;;;5172465;28;20046;-77
2022/06/11 12:32:28;;;;;;;3.22;2.30;;;27.60;49.90;;;;;;5171818;28;20061;-77
2022/06/11 12:35:09;;;;;;;2.88;2.58;;;27.50;50.40;;;;;;5153961;28;20077;-76
2022/06/11 12:38:03;;;;;;;2.53;2.25;;;27.50;50.00;;;;;;5174651;28;20070;-77
2022/06/11 12:41:05;;;;;;;3.60;2.38;;;27.50;49.70;;;;;;5174197;28;20046;-76
2022/06/11 12:43:51;;;;;;;3.45;2.70;;;27.50;48.80;;;;;;5171668;28;20485;-76
2022/06/11 12:46:35;;;;;;;3.85;2.38;;;27.50;50.90;;;;;;5172097;28;20150;-77
2022/06/11 12:49:24;;;;;;;;;;;27.70;52.80;;;;;;5150968;28;20489;-76
2022/06/11 12:52:02;;;;;;;3.92;2.50;;;27.80;52.20;;;;;;5171822;28;19928;-77
2022/06/11 12:54:39;;;;;;;4.72;2.50;;;28.20;51.80;;;;;;5170762;28;20728;-76
2022/06/11 12:57:26;;;;;;;4.68;2.65;;;28.70;51.50;;;;;;5173232;28;20060;-77
2022/06/11 13:00:32;;;;;;;3.88;2.65;;;28.90;49.60;;;;;;5172729;28;20054;-76
2022/06/11 13:03:11;;;;;;;4.30;2.70;;;28.80;47.50;;;;;;5172933;28;20441;-76
2022/06/11 13:05:59;;;;;;;4.07;2.25;;;28.90;46.90;;;;;;5172476;28;20049;-77
2022/06/11 13:09:07;;;;;;;3.05;2.30;;;29.60;47.70;;;;;;5155367;28;20042;-76
2022/06/11 13:11:58;;;;;;;3.53;2.33;;;30.10;48.00;;;;;;5174239;28;20049;-76
2022/06/11 13:14:50;;;;;;;4.18;2.03;;;30.20;45.80;;;;;;5173866;28;20057;-76
2022/06/11 13:17:34;;;;;;;3.05;2.40;;;30.00;46.10;;;;;;5173896;28;20045;-75
2022/06/11 13:20:42;;;;;;;6.47;2.47;;;30.20;46.30;;;;;;5172943;28;20053;-78
2022/06/11 13:23:42;;;;;;;2.42;2.05;;;30.00;46.60;;;;;;5150647;28;20174;-76
2022/06/11 13:26:54;;;;;;;3.75;2.22;;;29.50;46.70;;;;;;5173398;28;20899;-78
2022/06/11 13:29:44;;;;;;;4.57;2.78;;;28.60;48.30;;;;;;5169043;28;20049;-76
2022/06/11 13:32:24;;;;;;;3.92;2.60;;;28.30;49.50;;;;;;5173351;28;20045;-78
2022/06/11 13:35:20;;;;;;;2.95;2.42;;;27.90;47.90;;;;;;5172471;28;20050;-76
2022/06/11 13:38:01;;;;;;;5.50;2.72;;;27.50;49.00;;;;;;5169976;28;20046;-76
2022/06/11 13:41:05;;;;;;;10.05;5.43;;;27.00;50.50;;;;;;5174919;28;20417;-78
2022/06/11 13:43:51;;;;;;;7.28;3.30;;;26.70;51.60;;;;;;5171549;28;20374;-78
2022/06/11 13:46:43;;;;;;;8.48;4.25;;;26.30;51.40;;;;;;5171457;28;20046;-78
2022/06/11 13:49:50;;;;;;;3.88;2.75;;;26.60;53.10;;;;;;5168560;28;20050;-78
2022/06/11 13:55:37;;;;;;;3.53;2.45;;;28.00;47.80;;;;;;5171090;28;20065;-77
2022/06/11 13:58:33;;;;;;;3.75;2.67;;;28.00;47.70;;;;;;5153367;28;20042;-77
2022/06/11 14:01:46;;;;;;;3.60;2.40;;;28.30;48.10;;;;;;5169454;28;20057;-76